Flight Track Log - Related Links

Times and Time Zones

All times are in EDT time to prevent confusion due to time zone crossing. See the FDX1570 flight status page for this flight to view local times or setup timezone preferences in your user account.

Time Position Orientation Groundspeed Altitude Reporting Facility
EDT Latitude Longitude Course Direction KTS MPH feet Rate Location/Type
Sat 04:26:24 AM 35.0333 -89.9667 180° South 174 200 1,400  Level KMEM
Sat 04:27:12 AM 34.9833 -89.9667 180° South 184 212 3,100 2,500 Climbing KMEM
Sat 04:28:12 AM 34.9500 -89.9000 121° Southeast 287 330 5,900 3,100 Climbing KMEM
Sat 04:29:12 AM 34.9833 -89.8333 59° Northeast 299 344 9,300 2,607 Climbing KMEM
Sat 04:30:14 AM 35.0308 -89.7256 62° Northeast 343 395 11,200 1,869 Climbing Memphis Center
Sat 04:31:14 AM 35.0717 -89.6061 67° East 377 434 13,100 2,250 Climbing Memphis Center
Sat 04:32:14 AM 35.1169 -89.4761 67° East 395 455 15,700 2,450 Climbing Memphis Center
Sat 04:33:14 AM 35.1639 -89.3436 67° East 414 476 18,000 2,150 Climbing Memphis Center
Sat 04:34:14 AM 35.2147 -89.2058 66° East 432 497 20,000 2,200 Climbing Memphis Center
Sat 04:35:14 AM 35.2761 -89.0700 61° Northeast 442 509 22,400 2,650 Climbing Memphis Center
Sat 04:36:14 AM 35.3414 -88.9392 59° Northeast 459 528 25,300 2,400 Climbing Memphis Center
Sat 04:37:14 AM 35.3833 -88.7933 71° East 451 519 27,200 1,500 Climbing Memphis Center
Sat 04:38:14 AM 35.4231 -88.6450 72° East 451 519 28,300 1,488 Climbing Memphis Center
Sat 04:43:37 AM 35.7540 -87.7940 72° East 535 616 36,700 1,562 Climbing FlightAware ADS-B
Sat 04:44:19 AM 35.8160 -87.6920 53° Northeast 534 615 37,800 1,000 Climbing FlightAware ADS-B
Sat 04:45:01 AM 35.8790 -87.5900 53° Northeast 532 612 38,100 140 Climbing FlightAware ADS-B
Sat 04:45:45 AM 35.9450 -87.4810 53° Northeast 530 610 38,000 -71 Descending FlightAware ADS-B
Sat 04:46:25 AM 36.0030 -87.3870 53° Northeast 530 610 38,000  Level FlightAware ADS-B
Sat 04:46:57 AM 36.0501 -87.3091 53° Northeast 530 610 38,000  Level FlightAware ADS-B
Sat 04:47:42 AM 36.1169 -87.1979 53° Northeast 526 605 38,000  Level FlightAware ADS-B
Sat 04:48:12 AM 36.1603 -87.1258 53° Northeast 523 602 38,000  Level FlightAware ADS-B
Sat 04:48:51 AM 36.2164 -87.0322 53° Northeast 523 602 38,000  Level FlightAware ADS-B
Sat 04:49:44 AM 36.2922 -86.9075 53° Northeast 523 602 38,000  Level FlightAware ADS-B
Sat 04:50:37 AM 36.3690 -86.7780 54° Northeast 520 598 38,000  Level FlightAware ADS-B
Sat 04:50:52 AM 36.3907 -86.7417 53° Northeast 523 602 38,000  Level FlightAware ADS-B
Sat 04:52:03 AM 36.4910 -86.5740 53° Northeast 520 598 38,000  Level FlightAware ADS-B
Sat 04:52:42 AM 36.5470 -86.4800 53° Northeast 518 596 38,000  Level FlightAware ADS-B
Sat 04:53:39 AM 36.6200 -86.3550 54° Northeast 517 595 38,000  Level FlightAware ADS-B
Sat 04:54:28 AM 36.6978 -86.2232 54° Northeast 517 595 38,000  Level FlightAware ADS-B
Sat 04:54:59 AM 36.7407 -86.1511 53° Northeast 516 594 38,000 97 Level FlightAware ADS-B
Sat 04:55:30 AM 36.7845 -86.0765 54° Northeast 518 596 38,100 774 Climbing FlightAware ADS-B
Sat 04:56:01 AM 36.8285 -85.9993 55° Northeast 518 596 38,800 885 Climbing FlightAware ADS-B
Sat 04:56:31 AM 36.8714 -85.9268 53° Northeast 518 596 39,000 185 Climbing FlightAware ADS-B
Sat 04:57:06 AM 36.9207 -85.8422 54° Northeast 516 594 39,000  Level FlightAware ADS-B
Sat 04:57:49 AM 36.9750 -85.7480 54° Northeast 516 594 39,000  Level FlightAware ADS-B
Sat 04:58:10 AM 37.0102 -85.6875 54° Northeast 516 594 39,000  Level FlightAware ADS-B
Sat 04:59:05 AM 37.0876 -85.5532 54° Northeast 521 600 39,000  Level FlightAware ADS-B
Sat 04:59:36 AM 37.1314 -85.4774 54° Northeast 522 601 39,000  Level FlightAware ADS-B
Sat 05:00:07 AM 37.1751 -85.4014 54° Northeast 522 601 39,000  Level FlightAware ADS-B
Sat 05:00:39 AM 37.2192 -85.3251 54° Northeast 521 600 39,000  Level FlightAware ADS-B
Sat 05:01:14 AM 37.2681 -85.2392 54° Northeast 521 600 39,000  Level FlightAware ADS-B
Sat 05:01:44 AM 37.3109 -85.1629 55° Northeast 521 600 39,000  Level FlightAware ADS-B
Sat 05:02:15 AM 37.3533 -85.0892 54° Northeast 521 600 39,000  Level FlightAware ADS-B
Sat 05:02:49 AM 37.4021 -85.0031 54° Northeast 520 598 39,000  Level FlightAware ADS-B
Sat 05:03:40 AM 37.4720 -84.8803 54° Northeast 519 597 39,000  Level FlightAware ADS-B
Sat 05:04:18 AM 37.5251 -84.7845 55° Northeast 517 595 39,000  Level FlightAware ADS-B
Sat 05:04:56 AM 37.5766 -84.6939 54° Northeast 515 593 39,000  Level FlightAware ADS-B
Sat 05:05:28 AM 37.6215 -84.6132 55° Northeast 515 593 39,000  Level FlightAware ADS-B
Sat 05:06:36 AM 37.7100 -84.4540 55° Northeast 513 590 39,000  Level FlightAware ADS-B
Sat 05:07:20 AM 37.7720 -84.3420 55° Northeast 511 588 39,000  Level FlightAware ADS-B
Sat 05:08:05 AM 37.8346 -84.2292 55° Northeast 511 588 39,000  Level FlightAware ADS-B
Sat 05:08:36 AM 37.8771 -84.1531 55° Northeast 512 589 39,000  Level FlightAware ADS-B
Sat 05:09:06 AM 37.9177 -84.0793 55° Northeast 512 589 39,000  Level FlightAware ADS-B
Sat 05:09:43 AM 37.9520 -84.0170 55° Northeast 511 588 39,000  Level FlightAware ADS-B
Sat 05:09:57 AM 37.9867 -83.9541 55° Northeast 511 588 39,000  Level FlightAware ADS-B
Sat 05:10:34 AM 38.0369 -83.8630 55° Northeast 512 589 39,000  Level FlightAware ADS-B
Sat 05:13:29 AM 38.2700 -83.4350 55° Northeast 511 588 39,000  Level FlightAware ADS-B
Sat 05:14:21 AM 38.3400 -83.3040 56° Northeast 510 587 39,000  Level FlightAware ADS-B
Sat 05:14:52 AM 38.3824 -83.2243 56° Northeast 511 588 39,000  Level FlightAware ADS-B
Sat 05:15:44 AM 38.4510 -83.0970 55° Northeast 511 588 39,000  Level FlightAware ADS-B
Sat 05:15:58 AM 38.4709 -83.0602 55° Northeast 511 588 39,000  Level FlightAware ADS-B
Sat 05:17:05 AM 38.5590 -82.8930 56° Northeast 510 587 39,000  Level FlightAware ADS-B
Sat 05:17:45 AM 38.6110 -82.7960 56° Northeast 509 586 39,000  Level FlightAware ADS-B
Sat 05:18:30 AM 38.6690 -82.6860 56° Northeast 507 583 39,000  Level FlightAware ADS-B
Sat 05:19:13 AM 38.7280 -82.5750 56° Northeast 507 583 39,000  Level FlightAware ADS-B
Sat 05:19:57 AM 38.7840 -82.4680 56° Northeast 505 581 39,000  Level FlightAware ADS-B
Sat 05:20:35 AM 38.8330 -82.3730 56° Northeast 504 580 39,000  Level FlightAware ADS-B
Sat 05:21:15 AM 38.8850 -82.2760 55° Northeast 502 578 39,000  Level FlightAware ADS-B
Sat 05:21:55 AM 38.9380 -82.1730 56° Northeast 501 577 39,000  Level FlightAware ADS-B
Sat 05:22:39 AM 38.9940 -82.0640 57° Northeast 500 575 39,000  Level FlightAware ADS-B
Sat 05:23:15 AM 39.0400 -81.9770 56° Northeast 500 575 39,000  Level FlightAware ADS-B
Sat 05:23:53 AM 39.0890 -81.8830 56° Northeast 499 574 39,000  Level FlightAware ADS-B
Sat 05:24:35 AM 39.1410 -81.7810 57° Northeast 499 574 39,000  Level FlightAware ADS-B
Sat 05:25:15 AM 39.1910 -81.6820 57° Northeast 499 574 39,000  Level FlightAware ADS-B
Sat 05:26:01 AM 39.2510 -81.5650 56° Northeast 499 574 39,000  Level FlightAware ADS-B
Sat 05:26:41 AM 39.3010 -81.4650 57° Northeast 500 575 39,000  Level FlightAware ADS-B
Sat 05:27:24 AM 39.3560 -81.3580 56° Northeast 501 577 39,000  Level FlightAware ADS-B
Sat 05:28:02 AM 39.4050 -81.2600 57° Northeast 502 578 39,000  Level FlightAware ADS-B
Sat 05:28:45 AM 39.4580 -81.1550 57° Northeast 501 577 39,000  Level FlightAware ADS-B
Sat 05:29:31 AM 39.5160 -81.0390 57° Northeast 502 578 39,000  Level FlightAware ADS-B
Sat 05:30:11 AM 39.5680 -80.9370 56° Northeast 502 578 39,000  Level FlightAware ADS-B
Sat 05:30:55 AM 39.6230 -80.8260 57° Northeast 502 578 39,000  Level FlightAware ADS-B
Sat 05:31:35 AM 39.6740 -80.7250 57° Northeast 502 578 39,000  Level FlightAware ADS-B
Sat 05:32:13 AM 39.7220 -80.6290 57° Northeast 502 578 39,000  Level FlightAware ADS-B
Sat 05:32:58 AM 39.7770 -80.5140 58° Northeast 503 579 39,000  Level FlightAware ADS-B
Sat 05:33:43 AM 39.8340 -80.4000 57° Northeast 503 579 39,000  Level FlightAware ADS-B
Sat 05:34:23 AM 39.8850 -80.2950 58° Northeast 503 579 39,000  Level FlightAware ADS-B
Sat 05:35:05 AM 39.9370 -80.1900 57° Northeast 502 578 39,000  Level FlightAware ADS-B
Sat 05:35:39 AM 39.9790 -80.1030 58° Northeast 503 579 39,000  Level FlightAware ADS-B
Sat 05:36:23 AM 40.0330 -79.9910 58° Northeast 503 579 39,000  Level FlightAware ADS-B
Sat 05:37:07 AM 40.0890 -79.8780 57° Northeast 503 579 39,000  Level FlightAware ADS-B
Sat 05:37:39 AM 40.1290 -79.7930 58° Northeast 502 578 39,000  Level FlightAware ADS-B
Sat 05:38:23 AM 40.1820 -79.6820 58° Northeast 502 578 39,000  Level FlightAware ADS-B
Sat 05:39:06 AM 40.2360 -79.5720 57° Northeast 503 579 39,000  Level FlightAware ADS-B
Sat 05:39:46 AM 40.2850 -79.4690 58° Northeast 502 578 39,000  Level FlightAware ADS-B
Sat 05:40:28 AM 40.3370 -79.3580 58° Northeast 502 578 39,000  Level FlightAware ADS-B
Sat 05:41:10 AM 40.3880 -79.2520 58° Northeast 502 578 39,000  Level FlightAware ADS-B
Sat 05:41:52 AM 40.4390 -79.1430 58° Northeast 502 578 39,000  Level FlightAware ADS-B
Sat 05:42:32 AM 40.4860 -79.0420 59° Northeast 502 578 39,000  Level FlightAware ADS-B
Sat 05:43:16 AM 40.5420 -78.9230 58° Northeast 502 578 39,000  Level FlightAware ADS-B
Sat 05:44:00 AM 40.5950 -78.8110 58° Northeast 501 577 39,000  Level FlightAware ADS-B
Sat 05:44:41 AM 40.6440 -78.7040 59° Northeast 502 578 39,000  Level FlightAware ADS-B
Sat 05:45:16 AM 40.6870 -78.6130 58° Northeast 502 578 39,000  Level FlightAware ADS-B
Sat 05:46:00 AM 40.7390 -78.5010 58° Northeast 503 579 39,000  Level FlightAware ADS-B
Sat 05:46:36 AM 40.7843 -78.4012 59° Northeast 503 579 39,000  Level FlightAware ADS-B
Sat 05:47:27 AM 40.8360 -78.2880 59° Northeast 502 578 39,000  Level FlightAware ADS-B
Sat 05:48:12 AM 40.8900 -78.1730 58° Northeast 502 578 39,000  Level FlightAware ADS-B
Sat 05:48:47 AM 40.9390 -78.0770 56° Northeast 501 577 39,000  Level FlightAware ADS-B
Sat 05:49:30 AM 41.0058 -77.9555 54° Northeast 501 577 39,000  Level FlightAware ADS-B
Sat 05:50:07 AM 41.0470 -77.8820 53° Northeast 501 577 39,000  Level FlightAware ADS-B
Sat 05:50:23 AM 41.0786 -77.8275 52° Northeast 500 575 39,000 -600 Level FlightAware ADS-B
Sat 05:50:57 AM 41.1257 -77.7441 53° Northeast 499 574 38,500 -1,147 Descending FlightAware ADS-B
Sat 05:51:31 AM 41.1725 -77.6604 53° Northeast 502 578 37,700 -1,297 Descending FlightAware ADS-B
Sat 05:52:11 AM 41.2288 -77.5579 54° Northeast 508 585 36,900 -1,026 Descending FlightAware ADS-B
Sat 05:52:47 AM 41.2700 -77.4850 53° Northeast 508 585 36,400 -1,119 Descending FlightAware ADS-B
Sat 05:53:10 AM 41.3117 -77.4097 54° Northeast 508 585 35,800 -1,279 Descending FlightAware ADS-B
Sat 05:53:48 AM 41.3637 -77.3138 54° Northeast 509 586 35,100 -1,130 Descending FlightAware ADS-B
Sat 05:54:19 AM 41.4075 -77.2350 53° Northeast 511 588 34,500 -1,065 Descending FlightAware ADS-B
Sat 05:54:50 AM 41.4496 -77.1587 54° Northeast 511 588 34,000 -1,000 Descending FlightAware ADS-B
Sat 05:55:37 AM 41.5070 -77.0540 54° Northeast 511 588 33,200 -1,071 Descending FlightAware ADS-B
Sat 05:55:46 AM 41.5277 -77.0158 54° Northeast 511 588 33,000 -308 Descending FlightAware ADS-B
Sat 05:56:16 AM 41.5704 -76.9368 54° Northeast 512 589 33,000  Level FlightAware ADS-B
Sat 05:56:53 AM 41.6217 -76.8422 54° Northeast 512 589 33,000  Level FlightAware ADS-B
Sat 05:57:23 AM 41.6633 -76.7651 54° Northeast 512 589 33,000  Level FlightAware ADS-B
Sat 05:57:58 AM 41.7116 -76.6749 54° Northeast 515 593 33,000  Level FlightAware ADS-B
Sat 05:58:29 AM 41.7547 -76.5949 54° Northeast 514 592 33,000  Level FlightAware ADS-B
Sat 05:58:59 AM 41.7967 -76.5175 54° Northeast 513 590 33,000  Level FlightAware ADS-B
Sat 05:59:33 AM 41.8428 -76.4322 54° Northeast 513 590 33,000  Level FlightAware ADS-B
Sat 06:00:05 AM 41.8877 -76.3465 55° Northeast 513 590 33,000 -857 Level FlightAware ADS-B
Sat 06:00:43 AM 41.9387 -76.2512 54° Northeast 509 586 32,000 -2,429 Descending FlightAware ADS-B
Sat 06:01:29 AM 42.0013 -76.1334 54° Northeast 506 582 29,600 -3,375 Descending FlightAware ADS-B
Sat 06:02:19 AM 42.0690 -76.0050 55° Northeast 509 586 26,600 -3,267 Descending FlightAware ADS-B
Sat 06:02:59 AM 42.1190 -75.9090 55° Northeast 508 585 24,700 -1,902 Descending FlightAware ADS-B
Sat 06:03:41 AM 42.1800 -75.7930 55° Northeast 505 581 24,000 -1,171 Descending FlightAware ADS-B
Sat 06:04:21 AM 42.2350 -75.6880 55° Northeast 502 578 23,100 -2,122 Descending FlightAware ADS-B
Sat 06:05:03 AM 42.2880 -75.5860 55° Northeast 493 567 21,100 -2,455 Descending FlightAware ADS-B
Sat 06:05:49 AM 42.3500 -75.4650 55° Northeast 489 563 19,500 -1,857 Descending FlightAware ADS-B
Sat 06:06:27 AM 42.3980 -75.3740 54° Northeast 474 545 18,500 -1,737 Descending FlightAware ADS-B
Sat 06:07:05 AM 42.4450 -75.2810 56° Northeast 467 537 17,300 -818 Descending FlightAware ADS-B
Sat 06:07:55 AM 42.4950 -75.1770 57° Northeast 467 537 17,300  Level FlightAware ADS-B
Sat 06:08:32 AM 42.5320 -75.1000 57° Northeast 467 537 17,300  Level FlightAware ADS-B
Sat 06:08:56 AM 42.5560 -75.0490 57° Northeast 467 537 17,300  Level FlightAware ADS-B
Sat 06:09:43 AM 42.6030 -74.9510 57° Northeast 467 537 17,300  Level FlightAware ADS-B
Sat 06:10:20 AM 42.6400 -74.8740 57° Northeast 467 537 17,300 -5,229 Level FlightAware ADS-B
Sat 06:10:53 AM 42.5786 -74.6761 57° Northeast 431 496 11,200 -4,021 Descending Boston Center
Sat 06:11:54 AM 42.6042 -74.5358 76° East 373 429 11,000 -244 Descending Boston Center
Sat 06:12:56 AM 42.6022 -74.4089 91° East 348 400 10,700 -843 Descending Boston Center
Sat 06:13:55 AM 42.5917 -74.2931 97° East 307 353 9,300 -1,513 Descending Boston Center
Sat 06:14:55 AM 42.5850 -74.1800 95° East 305 351 7,700 -1,587 Descending Boston Center
Sat 06:15:56 AM 42.5783 -74.0697 95° East 294 338 6,100 -1,537 Descending Boston Center
Sat 06:16:56 AM 42.5819 -73.9628 87° East 281 323 4,600 -1,150 Descending Boston Center
Sat 06:17:56 AM 42.5847 -73.9036 86° East 247 284 3,800 -1,000 Descending Boston Center
Sat 06:18:56 AM 42.6150 -73.8308 61° Northeast 202 232 2,600 -700 Descending Boston Center
Sat 06:19:56 AM 42.6406 -73.7750 58° Northeast 173 199 2,400 -634 Descending Boston Center
Sat 06:20:59 AM 42.6861 -73.8042 335° Northwest 122 140 1,300 -871 Descending Boston Center
Sat 06:22:00 AM 42.7236 -73.8081 356° North 124 143 600 -689 Descending Boston Center

Login

Don't have an account? Register now (free) for customized features, flight alerts, and more!